createdAt,value
2023-05-22T00:01:46.574Z,101159.19
2023-05-22T00:04:23.998Z,101155.12
2023-05-22T00:06:58.001Z,101156.98
2023-05-22T00:09:27.993Z,101152.22
2023-05-22T00:12:07.415Z,101155.40
2023-05-22T00:14:45.261Z,101150.73
2023-05-22T00:17:23.969Z,101152.33
2023-05-22T00:20:11.764Z,101141.39
2023-05-22T00:22:50.202Z,101150.05
2023-05-22T00:25:28.916Z,101150.81
2023-05-22T00:28:07.536Z,101154.41
2023-05-22T00:30:38.491Z,101151.65
2023-05-22T00:33:17.219Z,101152.15
2023-05-22T00:35:55.349Z,101152.91
2023-05-22T00:38:40.099Z,101150.98
2023-05-22T00:41:12.517Z,101150.62
2023-05-22T00:43:45.823Z,101150.54
2023-05-22T00:46:21.889Z,101150.83
2023-05-22T00:48:59.210Z,101148.36
2023-05-22T00:51:36.672Z,101150.45
2023-05-22T00:54:14.986Z,101147.36
2023-05-22T00:56:46.854Z,101146.99
2023-05-22T00:59:18.012Z,101144.00
2023-05-22T01:01:56.358Z,101148.54
2023-05-22T01:04:35.549Z,101144.45
2023-05-22T01:07:13.423Z,101150.75
2023-05-22T01:09:54.829Z,101150.30
2023-05-22T01:12:49.242Z,101150.30
2023-05-22T01:15:45.388Z,101149.90
2023-05-22T01:18:42.379Z,101148.98
2023-05-22T01:22:01.547Z,101146.14
2023-05-22T01:25:30.510Z,101147.65
2023-05-22T01:28:59.171Z,101149.06
2023-05-22T01:31:45.511Z,101146.64
2023-05-22T01:34:21.961Z,101149.05
2023-05-22T01:36:59.767Z,101148.45
2023-05-22T01:39:38.768Z,101147.94
2023-05-22T01:42:17.704Z,101148.25
2023-05-22T01:44:59.383Z,101150.61
2023-05-22T01:47:38.021Z,101154.30
2023-05-22T01:50:17.366Z,101153.17
2023-05-22T01:53:40.013Z,101150.96
2023-05-22T01:56:34.380Z,101148.88
2023-05-22T01:59:34.531Z,101147.27
2023-05-22T02:02:12.797Z,101148.87
2023-05-22T02:05:00.598Z,101150.23
2023-05-22T02:07:40.861Z,101150.83
2023-05-22T02:10:20.387Z,101150.55
2023-05-22T02:12:58.762Z,101152.72
2023-05-22T02:15:37.406Z,101152.38
2023-05-22T02:18:17.901Z,101152.58
2023-05-22T02:20:56.310Z,101153.88
2023-05-22T02:23:31.838Z,101158.02
2023-05-22T02:26:10.056Z,101157.80
2023-05-22T02:28:47.504Z,101158.04
2023-05-22T02:31:21.956Z,101155.20
2023-05-22T02:33:59.905Z,101157.33
2023-05-22T02:36:38.035Z,101158.27
2023-05-22T02:39:15.644Z,101150.52
2023-05-22T02:41:53.407Z,101149.98
2023-05-22T02:44:23.510Z,101150.08
2023-05-22T02:47:01.358Z,101148.63
2023-05-22T02:49:40.006Z,101149.96
2023-05-22T02:52:19.492Z,101146.88
2023-05-22T02:54:56.686Z,101145.11
2023-05-22T02:57:34.207Z,101142.41
2023-05-22T03:00:13.469Z,101139.28
2023-05-22T03:02:52.178Z,101136.55
2023-05-22T03:05:29.963Z,101132.09
2023-05-22T03:08:09.227Z,101131.95
2023-05-22T03:10:46.958Z,101134.85
2023-05-22T03:13:17.322Z,101131.05
2023-05-22T03:15:55.788Z,101131.56
2023-05-22T03:18:28.311Z,101130.81
2023-05-22T03:21:03.388Z,101131.77
2023-05-22T03:23:34.421Z,101135.66
2023-05-22T03:26:13.465Z,101132.95
2023-05-22T03:28:51.018Z,101131.52
2023-05-22T03:31:34.932Z,101132.43
2023-05-22T03:34:13.149Z,101131.62
2023-05-22T03:36:51.630Z,101132.63
2023-05-22T03:39:30.039Z,101136.63
2023-05-22T03:42:09.284Z,101136.70
2023-05-22T03:44:47.471Z,101136.60
2023-05-22T03:47:25.709Z,101135.27
2023-05-22T03:50:03.467Z,101133.70
2023-05-22T03:52:41.821Z,101136.92
2023-05-22T03:55:19.255Z,101136.48
2023-05-22T03:57:58.138Z,101136.58
2023-05-22T04:00:28.199Z,101138.72
2023-05-22T04:02:59.107Z,101136.39
2023-05-22T04:05:37.526Z,101140.77
2023-05-22T04:08:15.489Z,101137.70
2023-05-22T04:10:54.684Z,101134.35
2023-05-22T04:13:33.541Z,101136.64
2023-05-22T04:16:04.656Z,101132.04
2023-05-22T04:18:43.853Z,101134.50
2023-05-22T04:21:24.016Z,101130.08
2023-05-22T04:24:07.559Z,101134.54
2023-05-22T04:26:46.147Z,101129.20
2023-05-22T04:29:25.184Z,101124.45
2023-05-22T04:32:03.422Z,101119.25
2023-05-22T04:34:42.555Z,101118.92
2023-05-22T04:37:21.000Z,101102.61
2023-05-22T04:40:07.371Z,101112.35
2023-05-22T04:42:46.479Z,101110.16
2023-05-22T04:45:25.785Z,101104.38
2023-05-22T04:48:04.295Z,101102.32
2023-05-22T04:50:42.626Z,101100.59
2023-05-22T04:53:21.490Z,101099.85
2023-05-22T04:56:04.907Z,101088.80
2023-05-22T04:58:42.939Z,101097.13
2023-05-22T05:01:23.269Z,101090.64
2023-05-22T05:03:59.178Z,101087.64
2023-05-22T05:06:32.855Z,101089.27
2023-05-22T05:09:07.419Z,101087.11
2023-05-22T05:11:45.758Z,101086.20
2023-05-22T05:14:24.275Z,101085.40
2023-05-22T05:17:02.908Z,101080.65
2023-05-22T05:19:42.121Z,101081.91
2023-05-22T05:22:18.068Z,101080.86
2023-05-22T05:24:56.805Z,101082.52
2023-05-22T05:27:35.066Z,101088.13
2023-05-22T05:30:14.593Z,101084.10
2023-05-22T05:32:52.830Z,101087.30
2023-05-22T05:35:30.892Z,101084.94
2023-05-22T05:38:09.197Z,101082.71
2023-05-22T05:40:47.771Z,101072.59
2023-05-22T05:43:25.834Z,101074.70
2023-05-22T05:46:04.249Z,101082.06
2023-05-22T05:48:42.330Z,101082.77
2023-05-22T05:51:21.631Z,101077.38
2023-05-22T05:53:56.962Z,101075.10
2023-05-22T05:56:28.852Z,101080.77
2023-05-22T05:59:07.196Z,101081.16
2023-05-22T06:01:48.307Z,101082.95
2023-05-22T06:04:24.767Z,101084.61
2023-05-22T06:07:04.262Z,101087.17
2023-05-22T06:09:42.788Z,101087.77
2023-05-22T06:12:21.673Z,101088.54
2023-05-22T06:15:00.007Z,101088.15
2023-05-22T06:17:37.949Z,101080.99
2023-05-22T06:20:16.042Z,101076.71
2023-05-22T06:22:53.774Z,101073.13
2023-05-22T06:25:32.446Z,101070.48
2023-05-22T06:28:07.057Z,101067.76
2023-05-22T06:30:46.249Z,101059.37
2023-05-22T06:33:24.878Z,101059.33
2023-05-22T06:36:04.164Z,101057.27
2023-05-22T06:38:41.867Z,101059.84
2023-05-22T06:41:12.381Z,101059.12
2023-05-22T06:43:49.381Z,101056.05
2023-05-22T06:46:26.781Z,101063.14
2023-05-22T06:49:06.542Z,101064.11
2023-05-22T06:51:44.141Z,101066.50
2023-05-22T06:54:21.964Z,101059.60
2023-05-22T06:56:59.779Z,101054.45
2023-05-22T06:59:37.448Z,101053.74
2023-05-22T07:02:16.037Z,101044.84
2023-05-22T07:04:54.402Z,101047.73
2023-05-22T07:07:32.235Z,101048.91
2023-05-22T07:10:06.857Z,101049.27
2023-05-22T07:12:38.133Z,101044.02
2023-05-22T07:15:12.580Z,101045.26
2023-05-22T07:17:50.232Z,101036.98
2023-05-22T07:20:28.746Z,101036.48
2023-05-22T07:23:04.953Z,101037.93
2023-05-22T07:25:43.677Z,101037.31
2023-05-22T07:28:21.894Z,101035.65
2023-05-22T07:30:59.103Z,101038.25
2023-05-22T07:33:37.392Z,101027.66
2023-05-22T07:36:16.054Z,101037.80
2023-05-22T07:38:54.915Z,101032.52
2023-05-22T07:41:33.601Z,101034.91
2023-05-22T07:44:11.679Z,101028.86
2023-05-22T07:46:49.331Z,101028.90
2023-05-22T07:49:28.339Z,101025.07
2023-05-22T07:52:01.407Z,101024.02
2023-05-22T07:54:32.347Z,101024.00
2023-05-22T07:57:12.898Z,101020.30
2023-05-22T07:59:51.155Z,101016.79
2023-05-22T08:02:28.589Z,101020.14
2023-05-22T08:05:07.733Z,101017.52
2023-05-22T08:07:46.390Z,101014.00
2023-05-22T08:10:19.227Z,101013.30
2023-05-22T08:12:58.936Z,101011.02
2023-05-22T08:15:38.947Z,101011.62
2023-05-22T08:18:17.807Z,101012.08
2023-05-22T08:20:58.625Z,101007.11
2023-05-22T08:23:38.927Z,101007.35
2023-05-22T08:26:16.750Z,101000.81
2023-05-22T08:28:54.207Z,100998.32
2023-05-22T08:31:34.794Z,100997.48
2023-05-22T08:34:12.537Z,100999.77
2023-05-22T08:36:51.037Z,100998.67
2023-05-22T08:39:29.430Z,100998.61
2023-05-22T08:42:08.731Z,101000.22
2023-05-22T08:44:47.869Z,100994.54
2023-05-22T08:47:24.409Z,100999.50
2023-05-22T08:50:00.803Z,101005.04
2023-05-22T08:52:53.501Z,101001.48
2023-05-22T08:55:31.979Z,100988.80
2023-05-22T08:58:12.130Z,100997.77
2023-05-22T09:00:50.612Z,100993.96
2023-05-22T09:03:38.238Z,100991.42
2023-05-22T09:06:18.066Z,100983.13
2023-05-22T09:09:02.270Z,100988.29
2023-05-22T09:11:40.633Z,100983.91
2023-05-22T09:14:18.969Z,100991.27
2023-05-22T09:16:57.672Z,100994.54
2023-05-22T09:19:36.780Z,100987.35
2023-05-22T09:22:14.954Z,100986.80
2023-05-22T09:24:53.209Z,100990.54
2023-05-22T09:27:32.810Z,100987.42
2023-05-22T09:30:12.591Z,100985.91
2023-05-22T09:32:54.106Z,100982.02
2023-05-22T09:35:34.994Z,100975.04
2023-05-22T09:38:16.167Z,100978.79
2023-05-22T09:40:58.872Z,100972.77
2023-05-22T09:43:38.259Z,100978.65
2023-05-22T09:46:20.624Z,100980.00
2023-05-22T09:49:04.104Z,100978.53
2023-05-22T09:51:48.602Z,100971.81
2023-05-22T09:54:31.400Z,100966.85
2023-05-22T09:57:12.652Z,100968.77
2023-05-22T09:59:59.775Z,100970.48
2023-05-22T10:02:35.703Z,100967.77
2023-05-22T10:05:29.644Z,100956.64
2023-05-22T10:08:19.169Z,100950.10
2023-05-22T10:10:58.274Z,100966.27
2023-05-22T10:13:37.032Z,100964.42
2023-05-22T10:16:17.211Z,100969.18
2023-05-22T10:18:55.751Z,100966.71
2023-05-22T10:21:34.504Z,100963.75
2023-05-22T10:24:11.261Z,100957.60
2023-05-22T10:26:51.079Z,100960.04
2023-05-22T10:30:00.108Z,100964.50
2023-05-22T10:33:04.871Z,100963.19
2023-05-22T10:36:00.166Z,100960.01
2023-05-22T10:39:00.736Z,100956.88
2023-05-22T10:41:39.584Z,100956.30
2023-05-22T10:44:19.580Z,100953.52
2023-05-22T10:46:51.048Z,100951.18
2023-05-22T10:49:27.264Z,100950.80
2023-05-22T10:51:57.770Z,100951.61
2023-05-22T10:54:49.577Z,100948.09
2023-05-22T10:57:28.755Z,100947.02
2023-05-22T11:00:20.514Z,100944.02
2023-05-22T11:03:17.943Z,100940.95
2023-05-22T11:05:57.948Z,100938.86
2023-05-22T11:08:39.888Z,100934.89
2023-05-22T11:11:17.918Z,100928.65
2023-05-22T11:14:07.031Z,100935.33
2023-05-22T11:16:43.138Z,100932.90
2023-05-22T11:19:26.586Z,100933.02
2023-05-22T11:22:02.538Z,100930.78
2023-05-22T11:24:38.560Z,100909.54
2023-05-22T11:27:16.992Z,100918.91
2023-05-22T11:29:56.026Z,100915.31
2023-05-22T11:32:34.204Z,100908.05
2023-05-22T11:35:12.157Z,100905.62
2023-05-22T11:37:51.333Z,100901.20
2023-05-22T11:40:31.864Z,100900.29
2023-05-22T11:43:10.713Z,100900.86
2023-05-22T11:45:48.753Z,100902.23
2023-05-22T11:48:28.019Z,100903.52
2023-05-22T11:51:06.731Z,100904.98
2023-05-22T11:53:45.127Z,100899.80
2023-05-22T11:56:24.258Z,100901.27
2023-05-22T11:58:57.486Z,100893.13
2023-05-22T12:01:36.750Z,100889.32
2023-05-22T12:04:14.819Z,100886.73
2023-05-22T12:06:54.874Z,100887.05
2023-05-22T12:09:36.458Z,100882.92
2023-05-22T12:12:17.576Z,100883.42
2023-05-22T12:14:55.389Z,100884.16
2023-05-22T12:17:33.638Z,100881.33
2023-05-22T12:20:16.408Z,100879.33
2023-05-22T12:22:49.861Z,100875.27
2023-05-22T12:25:21.156Z,100872.52
2023-05-22T12:27:59.906Z,100870.82
2023-05-22T12:30:42.284Z,100871.55
2023-05-22T12:33:21.211Z,100865.74
2023-05-22T12:36:00.060Z,100865.88
2023-05-22T12:38:39.885Z,100866.97
2023-05-22T12:41:18.552Z,100863.96
2023-05-22T12:43:57.234Z,100865.64
2023-05-22T12:46:39.326Z,100862.88
2023-05-22T12:49:18.216Z,100861.70
2023-05-22T12:51:56.694Z,100859.30
2023-05-22T12:54:35.813Z,100855.98
2023-05-22T12:57:17.417Z,100850.06
2023-05-22T12:59:55.740Z,100851.58
2023-05-22T13:02:34.617Z,100857.61
2023-05-22T13:05:14.222Z,100856.50
2023-05-22T13:07:53.679Z,100849.90
2023-05-22T13:10:32.302Z,100849.67
2023-05-22T13:13:04.062Z,100847.63
2023-05-22T13:15:42.149Z,100844.58
2023-05-22T13:18:20.824Z,100843.95
2023-05-22T13:20:52.605Z,100838.15
2023-05-22T13:23:23.655Z,100825.67
2023-05-22T13:26:02.730Z,100835.27
2023-05-22T13:28:41.206Z,100833.90
2023-05-22T13:31:19.792Z,100834.41
2023-05-22T13:33:51.687Z,100833.33
2023-05-22T13:36:30.603Z,100832.88
2023-05-22T13:39:09.648Z,100828.68
2023-05-22T13:41:43.292Z,100821.63
2023-05-22T13:44:21.770Z,100811.96
2023-05-22T13:46:56.056Z,100820.18
2023-05-22T13:49:33.042Z,100813.98
2023-05-22T13:52:03.780Z,100809.01
2023-05-22T13:54:41.931Z,100806.41
2023-05-22T13:57:21.001Z,100807.13
2023-05-22T13:59:59.347Z,100799.05
2023-05-22T14:02:37.950Z,100802.36
2023-05-22T14:05:09.681Z,100802.39
2023-05-22T14:07:47.818Z,100801.67
2023-05-22T14:10:26.303Z,100801.59
2023-05-22T14:13:04.395Z,100802.79
2023-05-22T14:15:42.950Z,100790.84
2023-05-22T14:18:21.579Z,100803.72
2023-05-22T14:20:59.547Z,100802.52
2023-05-22T14:23:37.999Z,100797.96
2023-05-22T14:26:16.780Z,100797.39
2023-05-22T14:28:47.846Z,100796.30
2023-05-22T14:31:24.321Z,100796.52
2023-05-22T14:34:02.948Z,100791.77
2023-05-22T14:36:40.683Z,100790.49
2023-05-22T14:39:19.173Z,100789.45
2023-05-22T14:41:58.698Z,100785.89
2023-05-22T14:44:36.981Z,100787.03
2023-05-22T14:47:16.019Z,100781.10
2023-05-22T14:49:57.684Z,100776.84
2023-05-22T14:52:41.721Z,100777.77
2023-05-22T14:55:21.494Z,100776.45
2023-05-22T14:58:00.339Z,100777.00
2023-05-22T15:00:37.555Z,100772.30
2023-05-22T15:03:17.199Z,100772.14
2023-05-22T15:05:56.673Z,100774.85
2023-05-22T15:08:37.138Z,100772.32
2023-05-22T15:11:15.682Z,100759.45
2023-05-22T15:13:56.842Z,100772.31
2023-05-22T15:16:35.084Z,100763.88
2023-05-22T15:19:05.551Z,100765.72
2023-05-22T15:21:37.606Z,100762.43
2023-05-22T15:24:10.274Z,100758.52
2023-05-22T15:26:45.760Z,100760.38
2023-05-22T15:29:23.238Z,100760.64
2023-05-22T15:32:00.986Z,100756.83
2023-05-22T15:34:32.239Z,100753.50
2023-05-22T15:37:14.035Z,100755.51
2023-05-22T15:39:51.900Z,100752.06
2023-05-22T15:42:30.144Z,100754.95
2023-05-22T15:45:08.510Z,100750.33
2023-05-22T15:47:47.400Z,100750.91
2023-05-22T15:50:25.744Z,100746.89
2023-05-22T15:53:04.541Z,100740.30
2023-05-22T15:55:43.134Z,100737.93
2023-05-22T15:58:22.562Z,100731.20
2023-05-22T16:01:02.253Z,100730.21
2023-05-22T16:03:41.543Z,100735.73
2023-05-22T16:06:13.109Z,100735.59
2023-05-22T16:08:46.881Z,100726.33
2023-05-22T16:11:25.573Z,100735.80
2023-05-22T16:14:03.968Z,100736.54
2023-05-22T16:16:42.305Z,100732.88
2023-05-22T16:19:20.485Z,100727.93
2023-05-22T16:21:58.252Z,100724.56
2023-05-22T16:24:28.795Z,100726.36
2023-05-22T16:27:07.838Z,100721.52
2023-05-22T16:29:45.246Z,100720.23
2023-05-22T16:32:23.366Z,100715.11
2023-05-22T16:35:02.148Z,100713.89
2023-05-22T16:37:41.470Z,100711.77
2023-05-22T16:40:20.926Z,100718.69
2023-05-22T16:42:59.842Z,100717.83
2023-05-22T16:45:32.852Z,100721.65
2023-05-22T16:48:09.366Z,100725.92
2023-05-22T16:50:48.429Z,100725.73
2023-05-22T16:53:27.315Z,100725.23
2023-05-22T16:56:05.119Z,100725.90
2023-05-22T16:58:43.071Z,100727.67
2023-05-22T17:01:22.525Z,100724.30
2023-05-22T17:03:57.720Z,100726.04
2023-05-22T17:06:32.963Z,100727.32
2023-05-22T17:09:11.248Z,100733.04
2023-05-22T17:11:45.280Z,100731.20
2023-05-22T17:14:22.262Z,100735.61
2023-05-22T17:16:59.453Z,100725.01
2023-05-22T17:19:31.017Z,100736.73
2023-05-22T17:22:09.178Z,100737.05
2023-05-22T17:24:46.986Z,100735.90
2023-05-22T17:27:35.483Z,100727.20
2023-05-22T17:30:12.286Z,100737.41
2023-05-22T17:32:50.480Z,100736.92
2023-05-22T17:35:29.290Z,100737.88
2023-05-22T17:38:08.893Z,100737.40
2023-05-22T17:40:47.464Z,100733.63
2023-05-22T17:43:21.155Z,100731.52
2023-05-22T17:45:58.814Z,100736.73
2023-05-22T17:48:36.983Z,100734.52
2023-05-22T17:51:15.746Z,100732.02
2023-05-22T17:53:56.498Z,100734.80
2023-05-22T17:56:32.206Z,100733.02
2023-05-22T17:59:11.296Z,100724.09
2023-05-22T18:01:49.653Z,100724.47
2023-05-22T18:04:27.048Z,100723.63
2023-05-22T18:07:04.321Z,100723.13
2023-05-22T18:09:41.417Z,100722.64
2023-05-22T18:12:30.152Z,100713.70
2023-05-22T18:15:13.688Z,100726.84
2023-05-22T18:17:50.975Z,100723.90
2023-05-22T18:20:24.749Z,100725.10
2023-05-22T18:23:03.226Z,100726.34
2023-05-22T18:25:33.400Z,100726.88
2023-05-22T18:28:11.036Z,100724.98
2023-05-22T18:30:49.889Z,100723.41
2023-05-22T18:33:27.900Z,100728.39
2023-05-22T18:36:08.521Z,100727.46
2023-05-22T18:38:40.050Z,100711.70
2023-05-22T18:41:14.798Z,100731.25
2023-05-22T18:43:52.986Z,100720.72
2023-05-22T18:46:31.596Z,100732.58
2023-05-22T18:49:11.236Z,100738.10
2023-05-22T18:51:48.798Z,100738.04
2023-05-22T18:54:27.278Z,100740.02
2023-05-22T18:57:04.994Z,100745.01
2023-05-22T18:59:38.046Z,100746.66
2023-05-22T19:02:09.285Z,100749.59
2023-05-22T19:04:49.372Z,100748.63
2023-05-22T19:07:23.549Z,100747.66
2023-05-22T19:10:03.858Z,100744.27
2023-05-22T19:12:43.681Z,100749.89
2023-05-22T19:15:23.538Z,100752.06
2023-05-22T19:18:04.075Z,100747.59
2023-05-22T19:20:42.303Z,100747.14
2023-05-22T19:23:20.433Z,100747.02
2023-05-22T19:25:58.820Z,100743.78
2023-05-22T19:28:38.210Z,100745.96
2023-05-22T19:31:17.021Z,100745.03
2023-05-22T19:33:49.750Z,100748.72
2023-05-22T19:36:27.781Z,100756.37
2023-05-22T19:39:06.737Z,100752.98
2023-05-22T19:41:45.505Z,100751.57
2023-05-22T19:44:17.744Z,100748.39
2023-05-22T19:46:53.860Z,100746.23
2023-05-22T19:49:34.774Z,100747.52
2023-05-22T19:52:13.947Z,100745.96
2023-05-22T19:54:53.346Z,100747.25
2023-05-22T19:57:35.434Z,100747.02
2023-05-22T20:00:12.495Z,100748.64
2023-05-22T20:02:52.245Z,100747.31
2023-05-22T20:05:30.350Z,100756.18
2023-05-22T20:08:13.445Z,100751.43
2023-05-22T20:10:52.582Z,100747.20
2023-05-22T20:13:30.815Z,100747.47
2023-05-22T20:16:13.261Z,100744.13
2023-05-22T20:18:51.359Z,100744.91
2023-05-22T20:21:31.213Z,100743.92
2023-05-22T20:24:17.764Z,100748.13
2023-05-22T20:26:54.934Z,100747.23
2023-05-22T20:29:33.744Z,100741.61
2023-05-22T20:32:13.149Z,100746.04
2023-05-22T20:34:52.732Z,100742.31
2023-05-22T20:37:29.857Z,100741.58
2023-05-22T20:40:09.634Z,100742.12
2023-05-22T20:42:47.896Z,100740.29
2023-05-22T20:45:27.375Z,100739.80
2023-05-22T20:48:06.648Z,100740.85
2023-05-22T20:50:47.965Z,100739.86
2023-05-22T20:53:26.847Z,100739.62
2023-05-22T20:56:06.315Z,100737.48
2023-05-22T20:58:44.928Z,100739.95
2023-05-22T21:01:23.767Z,100737.89
2023-05-22T21:04:02.444Z,100738.50
2023-05-22T21:06:40.993Z,100743.31
2023-05-22T21:09:19.900Z,100742.54
2023-05-22T21:11:50.838Z,100744.72
2023-05-22T21:14:29.331Z,100745.68
2023-05-22T21:17:01.505Z,100746.29
2023-05-22T21:19:36.500Z,100747.77
2023-05-22T21:22:15.396Z,100740.80
2023-05-22T21:24:53.923Z,100741.50
2023-05-22T21:27:32.192Z,100738.77
2023-05-22T21:30:11.082Z,100736.09
2023-05-22T21:32:49.110Z,100733.45
2023-05-22T21:35:30.117Z,100734.15
2023-05-22T21:38:11.471Z,100733.92
2023-05-22T21:40:50.183Z,100730.03
2023-05-22T21:43:31.717Z,100733.22
2023-05-22T21:46:11.556Z,100735.53
2023-05-22T21:48:46.902Z,100738.70
2023-05-22T21:51:25.521Z,100741.75
2023-05-22T21:53:55.890Z,100738.10
2023-05-22T21:56:34.333Z,100738.96
2023-05-22T21:59:14.316Z,100739.45
2023-05-22T22:01:53.246Z,100737.83
2023-05-22T22:04:31.926Z,100736.38
2023-05-22T22:07:03.059Z,100734.95
2023-05-22T22:09:38.367Z,100740.71
2023-05-22T22:12:17.224Z,100741.05
2023-05-22T22:14:55.861Z,100745.17
2023-05-22T22:17:35.069Z,100740.83
2023-05-22T22:20:14.766Z,100737.60
2023-05-22T22:22:53.808Z,100734.65
2023-05-22T22:25:32.438Z,100735.88
2023-05-22T22:28:09.370Z,100733.66
2023-05-22T22:30:51.365Z,100734.38
2023-05-22T22:33:28.281Z,100729.96
2023-05-22T22:36:07.318Z,100727.77
2023-05-22T22:38:46.382Z,100730.95
2023-05-22T22:41:16.480Z,100728.19
2023-05-22T22:43:54.783Z,100725.74
2023-05-22T22:46:32.844Z,100730.05
2023-05-22T22:49:13.495Z,100732.25
2023-05-22T22:51:51.666Z,100729.65
2023-05-22T22:54:30.693Z,100732.65
2023-05-22T22:57:11.179Z,100731.36
2023-05-22T22:59:49.742Z,100731.85
2023-05-22T23:02:27.644Z,100726.34
2023-05-22T23:05:08.412Z,100726.87
2023-05-22T23:07:46.828Z,100725.33
2023-05-22T23:10:20.815Z,100717.33
2023-05-22T23:12:50.775Z,100711.73
2023-05-22T23:15:29.770Z,100711.40
2023-05-22T23:21:22.929Z,100701.83
2023-05-22T23:23:53.610Z,100700.83
2023-05-22T23:26:35.855Z,100697.40
2023-05-22T23:29:13.867Z,100697.74
2023-05-22T23:31:53.283Z,100697.70
2023-05-22T23:34:31.627Z,100698.27
2023-05-22T23:37:11.910Z,100695.20
2023-05-22T23:39:51.160Z,100695.00
2023-05-22T23:42:30.228Z,100696.79
2023-05-22T23:45:10.202Z,100696.65
2023-05-22T23:47:48.243Z,100693.48
2023-05-22T23:50:27.019Z,100692.50
2023-05-22T23:53:05.309Z,100688.58
2023-05-22T23:55:44.591Z,100690.79
2023-05-22T23:58:18.529Z,100691.16
